createdAt,value
2022-11-05T00:03:29.500Z,10.89
2022-11-05T00:08:49.666Z,10.81
2022-11-05T00:14:09.588Z,10.82
2022-11-05T00:19:11.181Z,10.95
2022-11-05T00:24:31.673Z,11.10
2022-11-05T00:29:33.259Z,11.20
2022-11-05T00:34:34.746Z,11.30
2022-11-05T00:39:36.401Z,11.39
2022-11-05T00:44:57.053Z,11.31
2022-11-05T00:49:58.536Z,11.43
2022-11-05T00:55:00.182Z,11.46
2022-11-05T01:00:01.646Z,11.48
2022-11-05T01:05:03.759Z,11.48
2022-11-05T01:10:06.013Z,11.38
2022-11-05T01:15:08.070Z,11.40
2022-11-05T01:20:10.599Z,11.35
2022-11-05T01:25:12.097Z,11.43
2022-11-05T01:30:14.294Z,11.47
2022-11-05T01:35:17.788Z,11.49
2022-11-05T01:40:21.301Z,11.53
2022-11-05T01:45:25.489Z,11.47
2022-11-05T01:50:31.351Z,11.50
2022-11-05T01:55:36.857Z,11.48
2022-11-05T02:00:41.087Z,11.46
2022-11-05T02:05:43.494Z,11.45
2022-11-05T02:10:46.195Z,11.50
2022-11-05T02:16:08.644Z,11.54
2022-11-05T02:21:34.333Z,11.55
2022-11-05T02:26:50.214Z,11.57
2022-11-05T02:31:59.558Z,11.58
2022-11-05T02:37:14.528Z,11.62
2022-11-05T02:42:18.693Z,11.61
2022-11-05T02:47:33.805Z,11.65
2022-11-05T02:52:53.670Z,11.63
2022-11-05T02:57:55.317Z,11.58
2022-11-05T03:02:57.551Z,11.55
2022-11-05T03:08:10.488Z,11.43
2022-11-05T03:13:25.410Z,11.34
2022-11-05T03:18:52.563Z,11.24
2022-11-05T03:24:02.164Z,11.20
2022-11-05T03:29:09.989Z,11.22
2022-11-05T03:34:14.125Z,11.27
2022-11-05T03:39:23.102Z,11.18
2022-11-05T03:44:28.636Z,11.16
2022-11-05T03:49:36.469Z,11.20
2022-11-05T03:54:38.131Z,11.29
2022-11-05T03:59:43.581Z,11.30
2022-11-05T04:04:46.353Z,11.32
2022-11-05T04:10:07.324Z,11.29
2022-11-05T04:15:09.108Z,11.23
2022-11-05T04:20:29.429Z,11.25
2022-11-05T04:25:30.945Z,11.27
2022-11-05T04:30:32.395Z,11.25
2022-11-05T04:35:46.044Z,11.17
2022-11-05T04:40:48.219Z,11.10
2022-11-05T04:45:49.725Z,11.07
2022-11-05T04:50:51.148Z,11.08
2022-11-05T04:55:52.667Z,11.08
2022-11-05T05:00:56.666Z,11.09
2022-11-05T05:06:04.056Z,11.13
2022-11-05T05:11:11.344Z,11.22
2022-11-05T05:16:38.995Z,11.30
2022-11-05T05:21:41.005Z,11.39
2022-11-05T05:26:46.347Z,11.43
2022-11-05T05:31:47.867Z,11.42
2022-11-05T05:36:49.420Z,11.41
2022-11-05T05:41:51.315Z,11.22
2022-11-05T05:46:55.458Z,11.19
2022-11-05T05:51:57.480Z,11.11
2022-11-05T05:56:58.981Z,11.01
2022-11-05T06:02:00.722Z,10.97
2022-11-05T06:07:02.777Z,11.02
2022-11-05T06:12:04.618Z,11.03
2022-11-05T06:17:08.780Z,11.04
2022-11-05T06:22:10.571Z,11.01
2022-11-05T06:27:12.069Z,11.19
2022-11-05T06:32:13.571Z,11.32
2022-11-05T06:37:15.017Z,11.46
2022-11-05T06:42:19.089Z,11.48
2022-11-05T06:47:21.261Z,11.53
2022-11-05T06:52:22.840Z,11.57
2022-11-05T06:57:24.400Z,11.39
2022-11-05T07:02:25.954Z,11.27
2022-11-05T07:07:27.565Z,11.31
2022-11-05T07:12:29.048Z,11.29
2022-11-05T07:17:30.591Z,11.27
2022-11-05T07:22:32.521Z,11.16
2022-11-05T07:27:39.138Z,11.22
2022-11-05T07:32:41.145Z,11.30
2022-11-05T07:37:47.510Z,11.43
2022-11-05T07:42:53.937Z,11.55
2022-11-05T07:48:00.736Z,11.51
2022-11-05T07:53:07.659Z,11.52
2022-11-05T07:58:11.036Z,11.58
2022-11-05T08:03:15.003Z,11.65
2022-11-05T08:08:18.680Z,11.59
2022-11-05T08:13:20.145Z,11.57
2022-11-05T08:18:22.990Z,11.71
2022-11-05T08:23:24.632Z,11.76
2022-11-05T08:28:27.786Z,11.78
2022-11-05T08:33:31.393Z,11.93
2022-11-05T08:38:33.103Z,11.90
2022-11-05T08:43:34.670Z,11.97
2022-11-05T08:48:36.297Z,12.06
2022-11-05T08:53:37.855Z,12.27
2022-11-05T08:58:39.530Z,12.35
2022-11-05T09:03:41.557Z,12.48
2022-11-05T09:08:45.551Z,12.66
2022-11-05T09:13:47.208Z,12.97
2022-11-05T09:18:50.435Z,13.13
2022-11-05T09:23:51.876Z,13.32
2022-11-05T09:28:53.976Z,13.53
2022-11-05T09:33:55.531Z,13.72
2022-11-05T09:38:56.914Z,13.93
2022-11-05T09:44:04.452Z,14.06
2022-11-05T09:49:12.324Z,14.17
2022-11-05T09:54:15.183Z,14.33
2022-11-05T09:59:51.973Z,14.51
2022-11-05T10:04:56.861Z,14.62
2022-11-05T10:10:02.286Z,14.85
2022-11-05T10:15:22.271Z,15.06
2022-11-05T10:20:33.581Z,15.03
2022-11-05T10:25:41.091Z,14.98
2022-11-05T10:30:44.239Z,15.03
2022-11-05T10:35:53.926Z,15.22
2022-11-05T10:41:08.534Z,15.15
2022-11-05T10:46:28.686Z,15.19
2022-11-05T10:51:31.945Z,15.23
2022-11-05T10:56:36.582Z,15.48
2022-11-05T11:01:38.165Z,15.60
2022-11-05T11:06:47.862Z,15.76
2022-11-05T11:12:01.087Z,15.98
2022-11-05T11:17:27.884Z,16.09
2022-11-05T11:22:29.608Z,16.26
2022-11-05T11:27:34.294Z,16.48
2022-11-05T11:32:39.870Z,16.68
2022-11-05T11:37:42.066Z,16.80
2022-11-05T11:42:49.148Z,16.85
2022-11-05T11:47:50.940Z,17.04
2022-11-05T11:52:52.291Z,17.05
2022-11-05T11:58:06.383Z,17.15
2022-11-05T12:03:32.597Z,17.16
2022-11-05T12:08:42.989Z,17.35
2022-11-05T12:14:02.210Z,17.39
2022-11-05T12:19:45.678Z,17.35
2022-11-05T12:24:52.459Z,17.07
2022-11-05T12:30:02.441Z,16.53
2022-11-05T12:35:14.589Z,15.90
2022-11-05T12:40:31.613Z,15.95
2022-11-05T12:45:50.601Z,15.84
2022-11-05T12:50:59.280Z,15.98
2022-11-05T12:56:06.591Z,15.93
2022-11-05T13:01:17.861Z,16.00
2022-11-05T13:06:25.452Z,15.92
2022-11-05T13:11:36.126Z,15.16
2022-11-05T13:16:42.541Z,15.30
2022-11-05T13:21:48.136Z,15.38
2022-11-05T13:26:55.167Z,15.28
2022-11-05T13:32:02.826Z,14.91
2022-11-05T13:37:25.242Z,14.98
2022-11-05T13:43:07.422Z,14.99
2022-11-05T13:48:27.121Z,14.67
2022-11-05T13:53:47.006Z,14.60
2022-11-05T13:59:23.426Z,14.79
2022-11-05T14:04:36.058Z,14.75
2022-11-05T14:09:39.827Z,14.70
2022-11-05T14:14:46.490Z,14.56
2022-11-05T14:20:05.458Z,14.51
2022-11-05T14:25:19.160Z,14.67
2022-11-05T14:30:41.226Z,14.72
2022-11-05T14:35:43.221Z,14.78
2022-11-05T14:40:45.940Z,14.70
2022-11-05T14:46:02.443Z,14.72
2022-11-05T14:51:25.587Z,14.77
2022-11-05T14:56:27.084Z,14.82
2022-11-05T15:01:31.593Z,14.78
2022-11-05T15:06:36.199Z,14.65
2022-11-05T15:11:56.809Z,14.53
2022-11-05T15:17:14.060Z,14.33
2022-11-05T15:22:25.884Z,14.36
2022-11-05T15:27:50.157Z,14.25
2022-11-05T15:32:52.126Z,14.24
2022-11-05T15:38:01.781Z,13.97
2022-11-05T15:43:17.347Z,14.03
2022-11-05T15:48:19.719Z,13.96
2022-11-05T15:59:03.545Z,13.78
2022-11-05T16:04:19.577Z,13.73
2022-11-05T16:09:27.183Z,13.63
2022-11-05T16:14:35.063Z,13.58
2022-11-05T16:19:40.697Z,13.64
2022-11-05T16:24:43.173Z,13.55
2022-11-05T16:29:56.088Z,13.41
2022-11-05T16:35:02.834Z,13.29
2022-11-05T16:40:15.195Z,13.12
2022-11-05T16:45:18.787Z,12.96
2022-11-05T16:50:31.898Z,12.89
2022-11-05T16:55:36.166Z,12.76
2022-11-05T17:00:38.703Z,12.55
2022-11-05T17:05:40.115Z,12.45
2022-11-05T17:10:41.512Z,12.39
2022-11-05T17:15:45.452Z,12.31
2022-11-05T17:20:52.128Z,12.17
2022-11-05T17:25:56.055Z,12.02
2022-11-05T17:31:02.178Z,11.95
2022-11-05T17:36:08.605Z,11.79
2022-11-05T17:41:12.569Z,11.70
2022-11-05T17:46:16.453Z,11.61
2022-11-05T17:51:19.601Z,11.44
2022-11-05T17:56:30.598Z,11.39
2022-11-05T18:01:43.080Z,11.40
2022-11-05T18:06:44.772Z,11.30
2022-11-05T18:11:46.463Z,11.18
2022-11-05T18:16:48.203Z,11.19
2022-11-05T18:21:49.665Z,11.16
2022-11-05T18:26:51.154Z,11.17
2022-11-05T18:31:52.519Z,11.21
2022-11-05T18:36:56.550Z,11.10
2022-11-05T18:41:58.204Z,11.04
2022-11-05T18:46:59.566Z,11.05
2022-11-05T18:52:00.925Z,10.99
2022-11-05T18:57:02.490Z,10.94
2022-11-05T19:02:04.133Z,10.97
2022-11-05T19:07:07.033Z,10.92
2022-11-05T19:12:08.504Z,10.83
2022-11-05T19:17:10.363Z,10.85
2022-11-05T19:22:11.773Z,10.82
2022-11-05T19:27:13.150Z,10.80
2022-11-05T19:32:14.813Z,10.75
2022-11-05T19:37:16.188Z,10.76
2022-11-05T19:42:17.604Z,10.68
2022-11-05T19:47:18.974Z,10.58
2022-11-05T19:52:20.567Z,10.59
2022-11-05T19:57:21.942Z,10.57
2022-11-05T20:02:23.422Z,10.54
2022-11-05T20:07:24.881Z,10.49
2022-11-05T20:12:26.269Z,10.47
2022-11-05T20:17:27.795Z,10.56
2022-11-05T20:22:29.192Z,10.58
2022-11-05T20:27:30.525Z,10.46
2022-11-05T20:32:31.927Z,10.38
2022-11-05T20:37:33.317Z,10.38
2022-11-05T20:42:36.360Z,10.28
2022-11-05T20:47:37.685Z,10.20
2022-11-05T20:52:39.040Z,10.11
2022-11-05T20:57:40.379Z,10.16
2022-11-05T21:02:42.024Z,10.16
2022-11-05T21:07:44.275Z,10.14
2022-11-05T21:12:45.619Z,10.24
2022-11-05T21:17:46.987Z,10.26
2022-11-05T21:22:48.591Z,10.30
2022-11-05T21:27:49.917Z,10.27
2022-11-05T21:32:52.007Z,10.31
2022-11-05T21:37:53.468Z,10.28
2022-11-05T21:42:54.818Z,10.39
2022-11-05T21:47:56.658Z,10.34
2022-11-05T21:53:16.574Z,10.35
2022-11-05T21:58:37.017Z,10.33
2022-11-05T22:03:38.453Z,10.35
2022-11-05T22:08:39.801Z,10.44
2022-11-05T22:13:41.138Z,10.43
2022-11-05T22:18:42.508Z,10.37
2022-11-05T22:23:43.856Z,10.32
2022-11-05T22:28:45.379Z,10.36
2022-11-05T22:33:46.992Z,10.39
2022-11-05T22:38:48.362Z,10.33
2022-11-05T22:43:50.081Z,10.35
2022-11-05T22:48:52.252Z,10.30
2022-11-05T22:53:54.838Z,10.31
2022-11-05T22:58:56.991Z,10.20
2022-11-05T23:03:59.053Z,10.25
2022-11-05T23:09:19.464Z,10.30
2022-11-05T23:14:20.807Z,10.20
2022-11-05T23:19:41.356Z,10.23
2022-11-05T23:24:42.828Z,10.22
2022-11-05T23:29:44.190Z,10.20
2022-11-05T23:34:45.520Z,10.22
2022-11-05T23:39:46.925Z,10.26
2022-11-05T23:45:10.339Z,10.20
2022-11-05T23:50:14.504Z,10.13
2022-11-05T23:55:15.935Z,10.04
